sensor_id;sensor_type;location;lat;lon;timestamp;pressure;altitude;pressure_sealevel;temperature;humidity
9523;BME280;63165;43.016;25.784;2023-05-19T00:01:44;100104.19;;;15.72;100.00
9523;BME280;63165;43.016;25.784;2023-05-19T00:04:13;100095.59;;;15.67;100.00
9523;BME280;63165;43.016;25.784;2023-05-19T00:06:41;100086.63;;;15.71;100.00
9523;BME280;63165;43.016;25.784;2023-05-19T00:09:11;100094.56;;;15.71;100.00
9523;BME280;63165;43.016;25.784;2023-05-19T00:11:39;100096.50;;;15.66;100.00
9523;BME280;63165;43.016;25.784;2023-05-19T00:14:08;100090.41;;;15.64;100.00
9523;BME280;63165;43.016;25.784;2023-05-19T00:16:36;100093.06;;;15.64;100.00
9523;BME280;63165;43.016;25.784;2023-05-19T00:19:05;100089.56;;;15.64;100.00
9523;BME280;63165;43.016;25.784;2023-05-19T00:21:34;100081.28;;;15.49;100.00
9523;BME280;63165;43.016;25.784;2023-05-19T00:24:04;100100.28;;;15.59;100.00
9523;BME280;63165;43.016;25.784;2023-05-19T00:26:33;100087.03;;;15.61;100.00
9523;BME280;63165;43.016;25.784;2023-05-19T00:29:00;100094.09;;;15.60;100.00
9523;BME280;63165;43.016;25.784;2023-05-19T00:31:27;100106.41;;;15.60;100.00
9523;BME280;63165;43.016;25.784;2023-05-19T00:33:56;100101.06;;;15.61;100.00
9523;BME280;63165;43.016;25.784;2023-05-19T00:36:23;100097.63;;;15.59;100.00
9523;BME280;63165;43.016;25.784;2023-05-19T00:38:51;100098.63;;;15.57;100.00
9523;BME280;63165;43.016;25.784;2023-05-19T00:41:18;100085.59;;;15.52;100.00
9523;BME280;63165;43.016;25.784;2023-05-19T00:43:47;100062.50;;;15.33;100.00
9523;BME280;63165;43.016;25.784;2023-05-19T00:46:15;100099.09;;;15.43;100.00
9523;BME280;63165;43.016;25.784;2023-05-19T00:48:42;100094.22;;;15.32;100.00
9523;BME280;63165;43.016;25.784;2023-05-19T00:51:11;100090.56;;;15.36;100.00
9523;BME280;63165;43.016;25.784;2023-05-19T00:53:42;100070.88;;;15.21;100.00
9523;BME280;63165;43.016;25.784;2023-05-19T00:56:13;100099.66;;;15.27;100.00
9523;BME280;63165;43.016;25.784;2023-05-19T00:58:41;100088.53;;;15.19;100.00
9523;BME280;63165;43.016;25.784;2023-05-19T01:01:10;100083.34;;;15.16;100.00
9523;BME280;63165;43.016;25.784;2023-05-19T01:03:39;100073.13;;;15.07;100.00
9523;BME280;63165;43.016;25.784;2023-05-19T01:06:07;100074.06;;;15.06;100.00
9523;BME280;63165;43.016;25.784;2023-05-19T01:08:37;100067.41;;;14.94;100.00
9523;BME280;63165;43.016;25.784;2023-05-19T01:11:05;100083.22;;;14.94;100.00
9523;BME280;63165;43.016;25.784;2023-05-19T01:13:33;100084.44;;;14.85;100.00
9523;BME280;63165;43.016;25.784;2023-05-19T01:16:04;100076.78;;;14.78;100.00
9523;BME280;63165;43.016;25.784;2023-05-19T01:18:45;100077.84;;;14.72;100.00
9523;BME280;63165;43.016;25.784;2023-05-19T01:21:29;100081.28;;;14.74;100.00
9523;BME280;63165;43.016;25.784;2023-05-19T01:24:17;100080.66;;;14.66;100.00
9523;BME280;63165;43.016;25.784;2023-05-19T01:30:08;100099.34;;;14.58;100.00
9523;BME280;63165;43.016;25.784;2023-05-19T01:32:38;100100.19;;;14.59;100.00
9523;BME280;63165;43.016;25.784;2023-05-19T01:35:08;100099.41;;;14.55;100.00
9523;BME280;63165;43.016;25.784;2023-05-19T01:37:37;100099.59;;;14.49;100.00
9523;BME280;63165;43.016;25.784;2023-05-19T01:40:07;100115.44;;;14.47;100.00
9523;BME280;63165;43.016;25.784;2023-05-19T01:42:36;100114.69;;;14.44;100.00
9523;BME280;63165;43.016;25.784;2023-05-19T01:45:06;100126.38;;;14.35;100.00
9523;BME280;63165;43.016;25.784;2023-05-19T01:47:41;100105.03;;;14.44;100.00
9523;BME280;63165;43.016;25.784;2023-05-19T01:50:09;100106.94;;;14.39;100.00
9523;BME280;63165;43.016;25.784;2023-05-19T01:52:36;100118.97;;;14.48;100.00
9523;BME280;63165;43.016;25.784;2023-05-19T01:55:05;100120.69;;;14.49;100.00
9523;BME280;63165;43.016;25.784;2023-05-19T01:57:40;100113.84;;;14.43;100.00
9523;BME280;63165;43.016;25.784;2023-05-19T02:00:13;100119.91;;;14.45;100.00
9523;BME280;63165;43.016;25.784;2023-05-19T02:02:52;100114.03;;;14.37;100.00
9523;BME280;63165;43.016;25.784;2023-05-19T02:05:34;100135.66;;;14.47;100.00
9523;BME280;63165;43.016;25.784;2023-05-19T02:08:10;100116.72;;;14.35;100.00
9523;BME280;63165;43.016;25.784;2023-05-19T02:10:40;100123.56;;;14.41;100.00
9523;BME280;63165;43.016;25.784;2023-05-19T02:13:13;100127.84;;;14.44;100.00
9523;BME280;63165;43.016;25.784;2023-05-19T02:15:44;100137.06;;;14.59;100.00
9523;BME280;63165;43.016;25.784;2023-05-19T02:18:14;100137.94;;;14.59;100.00
9523;BME280;63165;43.016;25.784;2023-05-19T02:20:44;100142.34;;;14.59;100.00
9523;BME280;63165;43.016;25.784;2023-05-19T02:23:13;100146.69;;;14.60;100.00
9523;BME280;63165;43.016;25.784;2023-05-19T02:25:40;100151.16;;;14.56;100.00
9523;BME280;63165;43.016;25.784;2023-05-19T02:28:08;100146.97;;;14.50;100.00
9523;BME280;63165;43.016;25.784;2023-05-19T02:30:35;100154.81;;;14.52;100.00
9523;BME280;63165;43.016;25.784;2023-05-19T02:33:02;100147.19;;;14.43;100.00
9523;BME280;63165;43.016;25.784;2023-05-19T02:35:32;100129.06;;;14.33;100.00
9523;BME280;63165;43.016;25.784;2023-05-19T02:38:00;100155.88;;;14.46;100.00
9523;BME280;63165;43.016;25.784;2023-05-19T02:40:28;100165.47;;;14.47;100.00
9523;BME280;63165;43.016;25.784;2023-05-19T02:42:55;100161.19;;;14.45;100.00
9523;BME280;63165;43.016;25.784;2023-05-19T02:45:22;100163.03;;;14.41;100.00
9523;BME280;63165;43.016;25.784;2023-05-19T02:47:49;100167.56;;;14.36;100.00
9523;BME280;63165;43.016;25.784;2023-05-19T02:50:17;100178.13;;;14.34;100.00
9523;BME280;63165;43.016;25.784;2023-05-19T02:52:45;100167.84;;;14.27;100.00
9523;BME280;63165;43.016;25.784;2023-05-19T02:55:13;100169.72;;;14.23;100.00
9523;BME280;63165;43.016;25.784;2023-05-19T02:57:41;100192.69;;;14.18;100.00
9523;BME280;63165;43.016;25.784;2023-05-19T03:00:09;100181.28;;;14.17;100.00
9523;BME280;63165;43.016;25.784;2023-05-19T03:02:37;100155.69;;;13.93;100.00
9523;BME280;63165;43.016;25.784;2023-05-19T03:05:05;100194.69;;;14.08;100.00
9523;BME280;63165;43.016;25.784;2023-05-19T03:07:32;100164.47;;;13.93;100.00
9523;BME280;63165;43.016;25.784;2023-05-19T03:10:01;100187.03;;;14.01;100.00
9523;BME280;63165;43.016;25.784;2023-05-19T03:12:31;100192.25;;;14.02;100.00
9523;BME280;63165;43.016;25.784;2023-05-19T03:14:58;100187.91;;;14.01;100.00
9523;BME280;63165;43.016;25.784;2023-05-19T03:17:26;100201.97;;;14.00;100.00
9523;BME280;63165;43.016;25.784;2023-05-19T03:19:59;100203.81;;;13.96;100.00
9523;BME280;63165;43.016;25.784;2023-05-19T03:22:27;100203.03;;;13.93;100.00
9523;BME280;63165;43.016;25.784;2023-05-19T03:24:54;100210.09;;;13.91;100.00
9523;BME280;63165;43.016;25.784;2023-05-19T03:27:24;100208.41;;;13.90;100.00
9523;BME280;63165;43.016;25.784;2023-05-19T03:29:52;100203.28;;;13.84;100.00
9523;BME280;63165;43.016;25.784;2023-05-19T03:32:19;100211.91;;;13.89;100.00
9523;BME280;63165;43.016;25.784;2023-05-19T03:34:46;100219.81;;;13.89;100.00
9523;BME280;63165;43.016;25.784;2023-05-19T03:37:13;100220.63;;;13.91;100.00
9523;BME280;63165;43.016;25.784;2023-05-19T03:39:41;100212.84;;;13.88;100.00
9523;BME280;63165;43.016;25.784;2023-05-19T03:42:08;100217.19;;;13.89;100.00
9523;BME280;63165;43.016;25.784;2023-05-19T03:44:37;100212.00;;;13.86;100.00
9523;BME280;63165;43.016;25.784;2023-05-19T03:47:05;100217.06;;;13.93;100.00
9523;BME280;63165;43.016;25.784;2023-05-19T03:49:32;100216.97;;;13.96;100.00
9523;BME280;63165;43.016;25.784;2023-05-19T03:51:59;100211.81;;;13.93;100.00
9523;BME280;63165;43.016;25.784;2023-05-19T03:54:27;100202.09;;;13.95;100.00
9523;BME280;63165;43.016;25.784;2023-05-19T03:56:55;100216.94;;;13.98;100.00
9523;BME280;63165;43.016;25.784;2023-05-19T03:59:22;100217.53;;;14.08;100.00
9523;BME280;63165;43.016;25.784;2023-05-19T04:01:51;100207.84;;;14.08;100.00
9523;BME280;63165;43.016;25.784;2023-05-19T04:04:19;100184.66;;;13.91;100.00
9523;BME280;63165;43.016;25.784;2023-05-19T04:06:46;100216.63;;;14.09;100.00
9523;BME280;63165;43.016;25.784;2023-05-19T04:09:14;100222.53;;;14.17;100.00
9523;BME280;63165;43.016;25.784;2023-05-19T04:11:42;100227.56;;;14.25;100.00
9523;BME280;63165;43.016;25.784;2023-05-19T04:14:09;100222.97;;;14.33;100.00
9523;BME280;63165;43.016;25.784;2023-05-19T04:16:36;100224.38;;;14.43;100.00
9523;BME280;63165;43.016;25.784;2023-05-19T04:19:05;100234.56;;;14.55;100.00
9523;BME280;63165;43.016;25.784;2023-05-19T04:21:32;100226.28;;;14.69;100.00
9523;BME280;63165;43.016;25.784;2023-05-19T04:23:59;100224.94;;;14.84;100.00
9523;BME280;63165;43.016;25.784;2023-05-19T04:26:27;100232.50;;;14.95;100.00
9523;BME280;63165;43.016;25.784;2023-05-19T04:28:55;100229.38;;;15.10;100.00
9523;BME280;63165;43.016;25.784;2023-05-19T04:31:22;100232.50;;;15.22;100.00
9523;BME280;63165;43.016;25.784;2023-05-19T04:33:49;100236.75;;;15.26;100.00
9523;BME280;63165;43.016;25.784;2023-05-19T04:36:19;100238.69;;;15.47;100.00
9523;BME280;63165;43.016;25.784;2023-05-19T04:38:47;100235.78;;;15.55;100.00
9523;BME280;63165;43.016;25.784;2023-05-19T04:41:14;100227.56;;;15.64;100.00
9523;BME280;63165;43.016;25.784;2023-05-19T04:43:42;100228.09;;;15.76;100.00
9523;BME280;63165;43.016;25.784;2023-05-19T04:46:09;100221.84;;;15.78;100.00
9523;BME280;63165;43.016;25.784;2023-05-19T04:48:37;100232.72;;;15.94;100.00
9523;BME280;63165;43.016;25.784;2023-05-19T04:51:04;100228.84;;;16.03;100.00
9523;BME280;63165;43.016;25.784;2023-05-19T04:53:33;100215.47;;;16.09;100.00
9523;BME280;63165;43.016;25.784;2023-05-19T04:56:01;100238.88;;;16.18;100.00
9523;BME280;63165;43.016;25.784;2023-05-19T04:58:28;100229.97;;;16.21;100.00
9523;BME280;63165;43.016;25.784;2023-05-19T05:00:55;100239.34;;;16.29;100.00
9523;BME280;63165;43.016;25.784;2023-05-19T05:03:23;100244.22;;;16.40;100.00
9523;BME280;63165;43.016;25.784;2023-05-19T05:05:50;100243.06;;;16.47;100.00
9523;BME280;63165;43.016;25.784;2023-05-19T05:08:18;100243.75;;;16.53;100.00
9523;BME280;63165;43.016;25.784;2023-05-19T05:10:50;100245.97;;;16.63;99.94
9523;BME280;63165;43.016;25.784;2023-05-19T05:13:20;100248.28;;;16.73;99.17
9523;BME280;63165;43.016;25.784;2023-05-19T05:15:49;100252.41;;;16.80;98.14
9523;BME280;63165;43.016;25.784;2023-05-19T05:18:18;100241.84;;;16.80;98.19
9523;BME280;63165;43.016;25.784;2023-05-19T05:20:46;100257.06;;;16.97;96.81
9523;BME280;63165;43.016;25.784;2023-05-19T05:23:14;100242.94;;;16.96;96.07
9523;BME280;63165;43.016;25.784;2023-05-19T05:25:42;100260.06;;;17.10;95.39
9523;BME280;63165;43.016;25.784;2023-05-19T05:28:11;100247.44;;;17.16;95.87
9523;BME280;63165;43.016;25.784;2023-05-19T05:30:38;100249.72;;;17.25;94.81
9523;BME280;63165;43.016;25.784;2023-05-19T05:33:06;100225.38;;;17.17;94.26
9523;BME280;63165;43.016;25.784;2023-05-19T05:35:34;100249.06;;;17.41;93.22
9523;BME280;63165;43.016;25.784;2023-05-19T05:38:01;100263.81;;;17.46;93.75
9523;BME280;63165;43.016;25.784;2023-05-19T05:40:28;100267.47;;;17.44;93.78
9523;BME280;63165;43.016;25.784;2023-05-19T05:42:56;100236.47;;;17.48;93.79
9523;BME280;63165;43.016;25.784;2023-05-19T05:45:25;100246.50;;;17.60;93.05
9523;BME280;63165;43.016;25.784;2023-05-19T05:47:52;100254.66;;;17.76;92.02
9523;BME280;63165;43.016;25.784;2023-05-19T05:50:20;100264.13;;;17.81;91.29
9523;BME280;63165;43.016;25.784;2023-05-19T05:52:48;100257.66;;;17.89;91.25
9523;BME280;63165;43.016;25.784;2023-05-19T05:55:17;100249.78;;;18.08;90.69
9523;BME280;63165;43.016;25.784;2023-05-19T05:57:45;100239.13;;;18.09;90.39
9523;BME280;63165;43.016;25.784;2023-05-19T06:00:13;100263.63;;;18.33;90.33
9523;BME280;63165;43.016;25.784;2023-05-19T06:02:44;100263.06;;;18.46;89.01
9523;BME280;63165;43.016;25.784;2023-05-19T06:05:12;100264.78;;;18.47;88.12
9523;BME280;63165;43.016;25.784;2023-05-19T06:07:39;100262.44;;;18.59;87.40
9523;BME280;63165;43.016;25.784;2023-05-19T06:10:07;100244.31;;;18.50;86.71
9523;BME280;63165;43.016;25.784;2023-05-19T06:12:35;100260.69;;;18.77;86.90
9523;BME280;63165;43.016;25.784;2023-05-19T06:15:05;100276.53;;;18.98;85.81
9523;BME280;63165;43.016;25.784;2023-05-19T06:17:33;100262.13;;;19.04;85.64
9523;BME280;63165;43.016;25.784;2023-05-19T06:20:03;100270.34;;;19.16;85.00
9523;BME280;63165;43.016;25.784;2023-05-19T06:22:31;100272.69;;;19.23;84.78
9523;BME280;63165;43.016;25.784;2023-05-19T06:24:58;100266.22;;;19.28;84.75
9523;BME280;63165;43.016;25.784;2023-05-19T06:27:25;100273.38;;;19.45;83.38
9523;BME280;63165;43.016;25.784;2023-05-19T06:29:53;100277.03;;;19.60;82.21
9523;BME280;63165;43.016;25.784;2023-05-19T06:32:20;100283.19;;;19.80;81.16
9523;BME280;63165;43.016;25.784;2023-05-19T06:34:47;100286.13;;;19.91;80.36
9523;BME280;63165;43.016;25.784;2023-05-19T06:37:21;100278.72;;;19.97;81.20
9523;BME280;63165;43.016;25.784;2023-05-19T06:39:49;100262.47;;;19.86;80.44
9523;BME280;63165;43.016;25.784;2023-05-19T06:42:18;100279.56;;;19.98;79.08
9523;BME280;63165;43.016;25.784;2023-05-19T06:44:47;100292.00;;;19.97;79.16
9523;BME280;63165;43.016;25.784;2023-05-19T06:47:15;100260.75;;;19.85;78.16
9523;BME280;63165;43.016;25.784;2023-05-19T06:49:42;100258.09;;;19.85;78.69
9523;BME280;63165;43.016;25.784;2023-05-19T06:52:10;100287.50;;;20.15;78.73
9523;BME280;63165;43.016;25.784;2023-05-19T06:54:39;100292.59;;;20.20;78.06
9523;BME280;63165;43.016;25.784;2023-05-19T06:57:06;100290.38;;;20.28;77.28
9523;BME280;63165;43.016;25.784;2023-05-19T06:59:34;100295.41;;;20.17;77.20
9523;BME280;63165;43.016;25.784;2023-05-19T07:02:02;100285.25;;;20.08;76.85
9523;BME280;63165;43.016;25.784;2023-05-19T07:04:29;100298.69;;;20.22;76.32
9523;BME280;63165;43.016;25.784;2023-05-19T07:06:56;100298.91;;;20.17;76.60
9523;BME280;63165;43.016;25.784;2023-05-19T07:09:24;100297.50;;;20.28;75.14
9523;BME280;63165;43.016;25.784;2023-05-19T07:11:53;100289.81;;;20.39;75.59
9523;BME280;63165;43.016;25.784;2023-05-19T07:14:21;100298.13;;;20.49;75.59
9523;BME280;63165;43.016;25.784;2023-05-19T07:16:48;100300.66;;;20.52;74.44
9523;BME280;63165;43.016;25.784;2023-05-19T07:19:15;100293.38;;;20.55;73.83
9523;BME280;63165;43.016;25.784;2023-05-19T07:21:44;100303.41;;;20.66;73.84
9523;BME280;63165;43.016;25.784;2023-05-19T07:24:11;100296.97;;;20.70;73.57
9523;BME280;63165;43.016;25.784;2023-05-19T07:26:38;100299.94;;;20.82;73.23
9523;BME280;63165;43.016;25.784;2023-05-19T07:29:08;100283.44;;;20.91;72.93
9523;BME280;63165;43.016;25.784;2023-05-19T07:31:36;100281.06;;;21.02;72.97
9523;BME280;63165;43.016;25.784;2023-05-19T07:34:03;100297.78;;;21.20;72.62
9523;BME280;63165;43.016;25.784;2023-05-19T07:36:30;100291.16;;;21.27;71.86
9523;BME280;63165;43.016;25.784;2023-05-19T07:38:58;100294.50;;;21.31;71.47
9523;BME280;63165;43.016;25.784;2023-05-19T07:41:26;100302.97;;;21.38;70.34
9523;BME280;63165;43.016;25.784;2023-05-19T07:43:53;100305.38;;;21.42;68.73
9523;BME280;63165;43.016;25.784;2023-05-19T07:46:22;100313.28;;;21.44;68.51
9523;BME280;63165;43.016;25.784;2023-05-19T07:48:49;100307.03;;;21.45;68.42
9523;BME280;63165;43.016;25.784;2023-05-19T07:51:16;100295.28;;;21.33;68.11
9523;BME280;63165;43.016;25.784;2023-05-19T07:53:44;100312.59;;;21.40;68.74
9523;BME280;63165;43.016;25.784;2023-05-19T07:56:11;100291.31;;;21.40;68.83
9523;BME280;63165;43.016;25.784;2023-05-19T07:58:38;100302.03;;;21.55;68.32
9523;BME280;63165;43.016;25.784;2023-05-19T08:01:06;100310.53;;;21.61;68.23
9523;BME280;63165;43.016;25.784;2023-05-19T08:03:34;100305.50;;;21.71;69.22
9523;BME280;63165;43.016;25.784;2023-05-19T08:06:02;100304.03;;;21.81;69.32
9523;BME280;63165;43.016;25.784;2023-05-19T08:08:29;100312.91;;;21.96;68.92
9523;BME280;63165;43.016;25.784;2023-05-19T08:11:01;100296.09;;;22.10;67.51
9523;BME280;63165;43.016;25.784;2023-05-19T08:13:28;100298.41;;;22.31;66.99
9523;BME280;63165;43.016;25.784;2023-05-19T08:15:56;100291.75;;;22.38;66.60
9523;BME280;63165;43.016;25.784;2023-05-19T08:18:24;100306.50;;;22.72;65.35
9523;BME280;63165;43.016;25.784;2023-05-19T08:20:53;100317.16;;;22.86;64.61
9523;BME280;63165;43.016;25.784;2023-05-19T08:23:21;100311.50;;;23.05;63.67
9523;BME280;63165;43.016;25.784;2023-05-19T08:25:49;100302.41;;;23.22;62.66
9523;BME280;63165;43.016;25.784;2023-05-19T08:28:17;100293.50;;;23.36;62.64
9523;BME280;63165;43.016;25.784;2023-05-19T08:30:44;100291.63;;;23.51;62.36
9523;BME280;63165;43.016;25.784;2023-05-19T08:33:12;100294.88;;;23.69;61.50
9523;BME280;63165;43.016;25.784;2023-05-19T08:35:40;100294.44;;;23.75;60.81
9523;BME280;63165;43.016;25.784;2023-05-19T08:38:09;100289.16;;;23.88;61.80
9523;BME280;63165;43.016;25.784;2023-05-19T08:40:37;100288.31;;;24.00;61.42
9523;BME280;63165;43.016;25.784;2023-05-19T08:43:07;100299.13;;;24.12;61.10
9523;BME280;63165;43.016;25.784;2023-05-19T08:45:36;100287.69;;;24.22;59.97
9523;BME280;63165;43.016;25.784;2023-05-19T08:48:06;100289.38;;;24.23;58.25
9523;BME280;63165;43.016;25.784;2023-05-19T08:50:39;100295.47;;;24.38;57.63
9523;BME280;63165;43.016;25.784;2023-05-19T08:53:13;100294.63;;;24.38;57.07
9523;BME280;63165;43.016;25.784;2023-05-19T08:55:52;100292.50;;;24.43;57.33
9523;BME280;63165;43.016;25.784;2023-05-19T08:58:23;100295.72;;;24.35;58.15
9523;BME280;63165;43.016;25.784;2023-05-19T09:00:53;100297.75;;;24.32;58.13
9523;BME280;63165;43.016;25.784;2023-05-19T09:03:23;100297.00;;;24.30;57.73
9523;BME280;63165;43.016;25.784;2023-05-19T09:05:51;100291.75;;;24.28;58.28
9523;BME280;63165;43.016;25.784;2023-05-19T09:08:20;100295.81;;;24.47;58.25
9523;BME280;63165;43.016;25.784;2023-05-19T09:10:47;100297.41;;;24.62;57.98
9523;BME280;63165;43.016;25.784;2023-05-19T09:13:15;100296.00;;;24.69;57.25
9523;BME280;63165;43.016;25.784;2023-05-19T09:15:43;100285.50;;;24.66;57.31
9523;BME280;63165;43.016;25.784;2023-05-19T09:18:12;100289.94;;;24.54;57.96
9523;BME280;63165;43.016;25.784;2023-05-19T09:20:41;100290.69;;;24.56;57.33
9523;BME280;63165;43.016;25.784;2023-05-19T09:23:12;100284.97;;;24.61;57.22
9523;BME280;63165;43.016;25.784;2023-05-19T09:25:47;100278.03;;;24.71;56.47
9523;BME280;63165;43.016;25.784;2023-05-19T09:28:22;100282.06;;;24.77;55.93
9523;BME280;63165;43.016;25.784;2023-05-19T09:30:58;100279.78;;;24.84;56.01
9523;BME280;63165;43.016;25.784;2023-05-19T09:33:34;100281.94;;;24.91;55.97
9523;BME280;63165;43.016;25.784;2023-05-19T09:36:07;100275.44;;;25.07;56.09
9523;BME280;63165;43.016;25.784;2023-05-19T09:38:39;100273.78;;;25.17;54.73
9523;BME280;63165;43.016;25.784;2023-05-19T09:58:29;100255.72;;;26.03;50.86
9523;BME280;63165;43.016;25.784;2023-05-19T10:01:00;100265.84;;;26.10;51.23
9523;BME280;63165;43.016;25.784;2023-05-19T10:03:29;100222.94;;;25.99;51.10
9523;BME280;63165;43.016;25.784;2023-05-19T10:06:00;100271.50;;;26.30;51.00
9523;BME280;63165;43.016;25.784;2023-05-19T10:08:28;100277.81;;;26.40;50.25
9523;BME280;63165;43.016;25.784;2023-05-19T10:10:56;100203.69;;;26.17;50.15
9523;BME280;63165;43.016;25.784;2023-05-19T10:13:26;100251.00;;;26.63;50.27
9523;BME280;63165;43.016;25.784;2023-05-19T10:16:25;100254.06;;;26.69;50.39
9523;BME280;63165;43.016;25.784;2023-05-19T10:19:07;100244.66;;;26.64;51.15
9523;BME280;63165;43.016;25.784;2023-05-19T10:21:41;100256.47;;;26.72;50.48
9523;BME280;63165;43.016;25.784;2023-05-19T10:24:21;100235.16;;;26.71;50.34
9523;BME280;63165;43.016;25.784;2023-05-19T10:26:54;100235.44;;;26.89;49.58
9523;BME280;63165;43.016;25.784;2023-05-19T10:29:55;100233.59;;;26.89;47.80
9523;BME280;63165;43.016;25.784;2023-05-19T10:32:36;100237.97;;;27.02;48.67
9523;BME280;63165;43.016;25.784;2023-05-19T10:35:27;100233.41;;;27.14;49.49
9523;BME280;63165;43.016;25.784;2023-05-19T10:38:08;100229.31;;;26.98;49.62
9523;BME280;63165;43.016;25.784;2023-05-19T10:40:44;100231.75;;;27.01;49.63
9523;BME280;63165;43.016;25.784;2023-05-19T10:43:23;100215.31;;;26.83;49.43
9523;BME280;63165;43.016;25.784;2023-05-19T10:45:54;100204.75;;;26.70;49.16
9523;BME280;63165;43.016;25.784;2023-05-19T10:48:21;100218.78;;;26.74;49.29
9523;BME280;63165;43.016;25.784;2023-05-19T10:50:52;100212.34;;;26.65;48.98
9523;BME280;63165;43.016;25.784;2023-05-19T10:53:20;100204.41;;;26.52;48.50
9523;BME280;63165;43.016;25.784;2023-05-19T10:55:51;100203.81;;;26.60;48.46
9523;BME280;63165;43.016;25.784;2023-05-19T10:58:36;100215.59;;;26.69;48.02
9523;BME280;63165;43.016;25.784;2023-05-19T11:01:08;100208.16;;;26.72;47.64
9523;BME280;63165;43.016;25.784;2023-05-19T11:03:44;100195.59;;;26.73;47.27
9523;BME280;63165;43.016;25.784;2023-05-19T11:06:20;100134.41;;;26.33;47.56
9523;BME280;63165;43.016;25.784;2023-05-19T11:09:17;100187.34;;;26.97;49.19
9523;BME280;63165;43.016;25.784;2023-05-19T11:11:54;100170.31;;;27.08;48.17
9523;BME280;63165;43.016;25.784;2023-05-19T11:14:26;100171.97;;;27.20;47.58
9523;BME280;63165;43.016;25.784;2023-05-19T11:16:57;100181.00;;;27.19;47.25
9523;BME280;63165;43.016;25.784;2023-05-19T11:19:30;100161.53;;;27.06;48.04
9523;BME280;63165;43.016;25.784;2023-05-19T11:22:11;100160.06;;;27.13;47.67
9523;BME280;63165;43.016;25.784;2023-05-19T11:24:49;100123.47;;;27.01;47.26
9523;BME280;63165;43.016;25.784;2023-05-19T11:27:18;100150.84;;;27.27;46.42
9523;BME280;63165;43.016;25.784;2023-05-19T11:29:46;100154.72;;;27.34;46.16
9523;BME280;63165;43.016;25.784;2023-05-19T11:32:16;100161.59;;;27.27;47.15
9523;BME280;63165;43.016;25.784;2023-05-19T11:34:43;100148.03;;;27.28;48.37
9523;BME280;63165;43.016;25.784;2023-05-19T11:37:13;100140.69;;;27.30;48.70
9523;BME280;63165;43.016;25.784;2023-05-19T11:39:41;100123.22;;;27.25;48.71
9523;BME280;63165;43.016;25.784;2023-05-19T11:42:12;100095.06;;;27.19;48.76
9523;BME280;63165;43.016;25.784;2023-05-19T11:44:39;100123.19;;;27.36;47.54
9523;BME280;63165;43.016;25.784;2023-05-19T11:47:07;100133.56;;;27.72;47.28
9523;BME280;63165;43.016;25.784;2023-05-19T11:49:36;100130.28;;;27.89;47.22
9523;BME280;63165;43.016;25.784;2023-05-19T11:52:05;100124.19;;;27.87;46.99
9523;BME280;63165;43.016;25.784;2023-05-19T11:54:33;100124.00;;;27.88;47.00
9523;BME280;63165;43.016;25.784;2023-05-19T11:57:01;100126.63;;;28.00;46.76
9523;BME280;63165;43.016;25.784;2023-05-19T11:59:29;100128.63;;;27.98;44.64
9523;BME280;63165;43.016;25.784;2023-05-19T12:02:00;100129.34;;;27.79;44.92
9523;BME280;63165;43.016;25.784;2023-05-19T12:04:30;100093.47;;;27.59;44.95
9523;BME280;63165;43.016;25.784;2023-05-19T12:07:04;100107.56;;;27.51;44.69
9523;BME280;63165;43.016;25.784;2023-05-19T12:09:46;100134.38;;;27.62;45.05
9523;BME280;63165;43.016;25.784;2023-05-19T12:12:34;100131.03;;;27.70;45.67
9523;BME280;63165;43.016;25.784;2023-05-19T12:15:05;100105.38;;;27.66;46.06
9523;BME280;63165;43.016;25.784;2023-05-19T12:17:33;100129.06;;;27.72;45.27
9523;BME280;63165;43.016;25.784;2023-05-19T12:20:00;100121.84;;;27.73;44.99
9523;BME280;63165;43.016;25.784;2023-05-19T12:22:31;100135.88;;;27.76;45.37
9523;BME280;63165;43.016;25.784;2023-05-19T12:24:58;100129.06;;;27.72;45.33
9523;BME280;63165;43.016;25.784;2023-05-19T12:27:26;100113.41;;;27.56;45.88
9523;BME280;63165;43.016;25.784;2023-05-19T12:29:54;100121.81;;;27.42;45.98
9523;BME280;63165;43.016;25.784;2023-05-19T12:32:22;100116.00;;;27.37;46.77
9523;BME280;63165;43.016;25.784;2023-05-19T12:34:50;100110.19;;;27.20;46.83
9523;BME280;63165;43.016;25.784;2023-05-19T12:37:18;100132.81;;;27.18;47.16
9523;BME280;63165;43.016;25.784;2023-05-19T12:39:47;100134.22;;;27.01;47.54
9523;BME280;63165;43.016;25.784;2023-05-19T12:42:15;100141.75;;;26.86;48.27
9523;BME280;63165;43.016;25.784;2023-05-19T12:44:43;100148.47;;;26.80;47.90
9523;BME280;63165;43.016;25.784;2023-05-19T12:47:12;100142.94;;;26.61;48.56
9523;BME280;63165;43.016;25.784;2023-05-19T12:49:52;100157.34;;;26.60;47.90
9523;BME280;63165;43.016;25.784;2023-05-19T12:52:31;100169.06;;;26.25;48.05
9523;BME280;63165;43.016;25.784;2023-05-19T12:55:10;100189.09;;;25.51;46.76
9523;BME280;63165;43.016;25.784;2023-05-19T12:57:42;100133.81;;;24.42;47.61
9523;BME280;63165;43.016;25.784;2023-05-19T13:00:13;100209.34;;;24.33;50.17
9523;BME280;63165;43.016;25.784;2023-05-19T13:02:55;100202.22;;;23.70;52.64
9523;BME280;63165;43.016;25.784;2023-05-19T13:05:23;100260.31;;;23.13;53.91
9523;BME280;63165;43.016;25.784;2023-05-19T13:07:54;100258.44;;;22.31;56.79
9523;BME280;63165;43.016;25.784;2023-05-19T13:10:24;100284.03;;;21.74;59.07
9523;BME280;63165;43.016;25.784;2023-05-19T13:12:53;100278.66;;;21.13;61.35
9523;BME280;63165;43.016;25.784;2023-05-19T13:15:21;100286.22;;;20.56;64.09
9523;BME280;63165;43.016;25.784;2023-05-19T13:21:05;100300.72;;;19.65;69.76
9523;BME280;63165;43.016;25.784;2023-05-19T13:23:32;100243.16;;;19.30;72.11